Nearby METAR Reports

 

KBED - Bedford, Massachusetts, USA
Distance from station: ENE 12mi, 20km
Updated: Fri, 24-May-2024 1:51am EDT
Clear
Clear
 Wind from calm
Wind: Calm
Temperature: 57°F , 14°C
Dew Point: 48°F , 9°C
Humidity: 72%
Barometer: 29.81 inHg , 1009.5 hPa
Clouds: Clear
Visibility: 10 miles , 16 km
2024/05/24 05:51 KBED 240551Z AUTO 00000KT 10SM CLR 14/09 A2981 RMK AO2 SLP106 T01440094 10228 20144 50003
KFIT - Fitchburg, Massachusetts, USA
Distance from station: NW 15mi, 24km
Updated: Fri, 24-May-2024 1:52am EDT
Clear
Clear
 Wind from calm
Wind: Calm
Temperature: 55°F , 13°C
Dew Point: 48°F , 9°C
Humidity: 77%
Barometer: 29.84 inHg , 1010.5 hPa
Clouds: Clear
Visibility: 10 miles , 16 km
2024/05/24 05:52 KFIT 240552Z AUTO 00000KT 10SM CLR 13/09 A2984 RMK AO2 SLP103 T01280094 10244 20122 50001
 
KORH - Worcester, Massachusetts, USA
Distance from station: WSW 20mi, 32km
Updated: Fri, 24-May-2024 1:54am EDT
Clear
Clear
 Wind from WNW
Wind: WNW 7 mph , 11 km/h
Temperature: 57°F , 14°C
Dew Point: 48°F , 9°C
Humidity: 72%
Barometer: 29.85 inHg , 1010.8 hPa
Clouds: Clear
Visibility: 10 miles , 16 km
2024/05/24 05:54 KORH 240554Z AUTO 29006KT 10SM CLR 14/09 A2985 RMK AO2 SLP108 T01440094 10222 20144 58001
KOWD - Norwood, Massachusetts, USA
Distance from station: SE 24mi, 39km
Updated: Fri, 24-May-2024 2:08am EDT
Fog, Overcast
Fog, Overcast
 Wind from calm
Wind: Calm
Temperature: 59°F , 15°C
Dew Point: 57°F , 14°C
Humidity: 94%
Summary: Fog
Clouds: Overcast
Visibility: 1/4 mile , 0.4 km
Cloud details: Overcast 200 ft
2024/05/24 06:08 KOWD 240608Z AUTO 00000KT 1/4SM FG VV002 15/14 RMK AO2 T01500139 $
 
KMQE - East Milton, Massachusetts, USA
Distance from station: ESE 25mi, 40km
Updated: Thu, 01-Jul-2021 9:51am EDT
NOT Current

 Wind from WNW
Wind: WNW 9 mph , 15 km/h
Temperature: 75°F , 24°C
Dew Point: 70°F , 21°C
Humidity: 83%
Barometer: 29.86 inHg , 1011.2 hPa
2021/07/01 13:51 KMQE 011351Z AUTO 30008KT 24/21 A2986 RMK AO1 SLP116 T02440206
KASH - Nashua/Boire Fld, New Hampshire, USA
Distance from station: N 26mi, 42km
Updated: Fri, 24-May-2024 1:56am EDT
Clear
Clear
 Wind from calm
Wind: Calm
Temperature: 57°F , 14°C
Dew Point: 55°F , 13°C
Humidity: 94%
Barometer: 29.82 inHg , 1009.8 hPa
Clouds: Clear
Visibility: 10 miles , 16 km
2024/05/24 05:56 KASH 240556Z AUTO 00000KT 10SM CLR 14/13 A2982 RMK AO2 SLP103 6//// T01440133 10244 20144 50003 PNO $
 
KBOS - Boston, Massachusetts, USA
Distance from station: E 26mi, 42km
Updated: Fri, 24-May-2024 1:54am EDT
Few Clouds
Few Clouds
 Wind from NW
Wind: NW 7 mph , 11 km/h
Temperature: 68°F , 20°C
Dew Point: 48°F , 9°C
Humidity: 49%
Barometer: 29.82 inHg , 1009.8 hPa
Clouds: Few Clouds
Visibility: 10 miles , 16 km
Cloud details: Few Clouds 25000 ft
2024/05/24 05:54 KBOS 240554Z 31006KT 10SM FEW250 20/09 A2982 RMK AO2 SLP096 T02000089 10250 20200 50005
KLWM - Lawrence, Massachusetts, USA
Distance from station: NE 29mi, 47km
Updated: Fri, 24-May-2024 1:54am EDT
Clear
Clear
 Wind from WSW
Wind: WSW 3 mph , 6 km/h
Temperature: 61°F , 16°C
Dew Point: 48°F , 9°C
Humidity: 63%
Barometer: 29.83 inHg , 1010.2 hPa
Clouds: Clear
Visibility: 10 miles , 16 km
2024/05/24 05:54 KLWM 240554Z AUTO 25003KT 10SM CLR 16/09 A2983 RMK AO2 SLP099 T01610094 10256 20161 50004
 
KBVY - Beverly, Massachusetts, USA
Distance from station: ENE 33mi, 54km
Updated: Fri, 24-May-2024 1:53am EDT
Clear
Clear
 Wind from WNW
Wind: WNW 7 mph , 11 km/h
Temperature: 64°F , 18°C
Dew Point: 50°F , 10°C
Humidity: 60%
Barometer: 29.80 inHg , 1009.1 hPa
Clouds: Clear
Visibility: 10 miles , 16 km
2024/05/24 05:53 KBVY 240553Z AUTO 29006KT 10SM CLR 18/10 A2980 RMK AO2 SLP086 T01830100 10239 20178 50005
KSFZ - Pawtucket, Rhode Island, USA
Distance from station: S 34mi, 54km
Updated: Fri, 24-May-2024 1:56am EDT
Clear
Clear
 Wind from WNW
Wind: WNW 3 mph , 6 km/h
Temperature: 61°F , 16°C
Dew Point: 61°F , 16°C
Humidity: 100%
Barometer: 29.85 inHg , 1010.8 hPa
Clouds: Clear
Visibility: 10 miles , 16 km
2024/05/24 05:56 KSFZ 240556Z AUTO 29003KT 10SM CLR 16/16 A2985 RMK AO2 SLP106 T01610161 10211 20161 58001 $
 
KAFN - Jaffrey, New Hampshire, USA
Distance from station: NW 36mi, 59km
Updated: Fri, 24-May-2024 1:52am EDT
Clear
Clear
 Wind from calm
Wind: Calm
Temperature: 55°F , 13°C
Dew Point: 50°F , 10°C
Humidity: 82%
Barometer: 29.85 inHg , 1010.8 hPa
Clouds: Clear
Visibility: 10 miles , 16 km
2024/05/24 05:52 KAFN 240552Z AUTO 00000KT 10SM CLR 13/10 A2985 RMK AO2 SLP109 T01280100 10233 20122 58000
KMHT - Manchester, New Hampshire, USA
Distance from station: N 37mi, 59km
Updated: Fri, 24-May-2024 1:53am EDT
Clear
Clear
 Wind from calm
Wind: Calm
Temperature: 61°F , 16°C
Dew Point: 52°F , 11°C
Humidity: 72%
Barometer: 29.80 inHg , 1009.1 hPa
Clouds: Clear
Visibility: 10 miles , 16 km
2024/05/24 05:53 KMHT 240553Z 00000KT 10SM CLR 16/11 A2980 RMK AO2 SLP100 T01560106 10267 20156 50004
 
KORE - Orange, Massachusetts, USA
Distance from station: WNW 40mi, 65km
Updated: Fri, 24-May-2024 1:52am EDT
Clear
Clear
 Wind from calm
Wind: Calm
Temperature: 54°F , 12°C
Dew Point: 52°F , 11°C
Humidity: 94%
Barometer: 29.85 inHg , 1010.8 hPa
Clouds: Clear
Visibility: 10 miles , 16 km
2024/05/24 05:52 KORE 240552Z AUTO 00000KT 10SM CLR 12/11 A2985 RMK AO2 SLP109 60000 T01170106 10228 20117 58002
KTAN - Taunton, Massachusetts, USA
Distance from station: SE 45mi, 72km
Updated: Fri, 24-May-2024 2:04am EDT
Mist, Mostly cloudy
Mist, Mostly cloudy
 Wind from calm
Wind: Calm
Temperature: 63°F , 17°C
Dew Point: 61°F , 16°C
Humidity: 94%
Barometer: 29.83 inHg , 1010.2 hPa
Summary: Mist
Clouds: Mostly cloudy
Visibility: 1 3/4 miles , 2.8 km
Cloud details: Mostly cloudy 6500 ft
2024/05/24 06:04 KTAN 240604Z AUTO 00000KT 1 3/4SM BR BKN065 17/16 A2983 RMK AO2 VIS 1V3 T01720156
 
KPVD - Providence/Green, Rhode Island, USA
Distance from station: S 48mi, 77km
Updated: Fri, 24-May-2024 1:51am EDT
Clear
Clear
 Wind from SW
Wind: SW 3 mph , 6 km/h
Temperature: 63°F , 17°C
Dew Point: 63°F , 17°C
Humidity: 100%
Barometer: 29.84 inHg , 1010.5 hPa
Clouds: Clear
Visibility: 7 miles , 11 km
2024/05/24 05:51 KPVD 240551Z AUTO 23003KT 7SM CLR 17/17 A2984 RMK AO2 SLP105 T01720172 10211 20172 50000
KGHG - Marshfield, Massachusetts, USA
Distance from station: ESE 49mi, 79km
Updated: Fri, 24-May-2024 1:55am EDT
Mostly cloudy
Mostly cloudy
 Wind from calm
Wind: Calm
Temperature: 64°F , 18°C
Dew Point: 63°F , 17°C
Humidity: 94%
Barometer: 29.82 inHg , 1009.8 hPa
Clouds: Mostly cloudy
Visibility: 10 miles , 16 km
Cloud details: Mostly cloudy 5000 ft
Mostly cloudy 6000 ft
2024/05/24 05:55 KGHG 240555Z AUTO 00000KT 10SM BKN050 BKN060 18/17 A2982 RMK AO2
 
KEEN - Keene/Dillant, New Hampshire, USA
Distance from station: NW 50mi, 81km
Updated: Fri, 24-May-2024 1:56am EDT
Clear
Clear
 Wind from calm
Wind: Calm
Temperature: 54°F , 12°C
Dew Point: 52°F , 11°C
Humidity: 94%
Barometer: 29.84 inHg , 1010.5 hPa
Clouds: Clear
Visibility: 10 miles , 16 km
2024/05/24 05:56 KEEN 240556Z AUTO 00000KT 10SM CLR 12/11 A2984 RMK AO2 SLP108 T01170106 10228 20111 58001 $